createdAt,value
2017-09-07T00:00:27.242Z,92.65
2017-09-07T00:01:39.766Z,92.07
2017-09-07T00:02:52.008Z,92.65
2017-09-07T00:04:04.516Z,93.22
2017-09-07T00:05:16.750Z,92.65
2017-09-07T00:06:28.977Z,92.07
2017-09-07T00:07:41.516Z,92.07
2017-09-07T00:08:53.424Z,92.26
2017-09-07T00:10:05.668Z,92.83
2017-09-07T00:11:18.206Z,92.74
2017-09-07T00:12:30.452Z,93.22
2017-09-07T00:13:42.978Z,92.46
2017-09-07T00:14:55.198Z,93.02
2017-09-07T00:16:07.438Z,92.55
2017-09-07T00:17:19.347Z,92.26
2017-09-07T00:18:31.858Z,92.07
2017-09-07T00:19:44.409Z,92.07
2017-09-07T00:20:56.943Z,92.26
2017-09-07T00:22:09.150Z,92.17
2017-09-07T00:23:21.073Z,91.5
2017-09-07T00:24:33.856Z,91.78
2017-09-07T00:25:45.755Z,91.69
2017-09-07T00:26:58.307Z,92.55
2017-09-07T00:28:10.842Z,92.07
2017-09-07T00:29:22.774Z,91.21
2017-09-07T00:30:34.994Z,91.31
2017-09-07T00:31:47.240Z,90.73
2017-09-07T00:32:59.474Z,90.83
2017-09-07T00:34:12.020Z,90.64
2017-09-07T00:35:24.577Z,91.5
2017-09-07T00:36:37.100Z,90.26
2017-09-07T00:37:49.665Z,91.02
2017-09-07T00:39:02.202Z,90.55
2017-09-07T00:40:14.448Z,91.12
2017-09-07T00:41:27.005Z,90.93
2017-09-07T00:42:39.201Z,91.21
2017-09-07T00:43:51.443Z,91.78
2017-09-07T00:45:03.414Z,91.69
2017-09-07T00:46:15.960Z,91.78
2017-09-07T00:47:28.205Z,90.73
2017-09-07T00:48:40.753Z,90.73
2017-09-07T00:49:52.688Z,91.21
2017-09-07T00:51:05.234Z,90.83
2017-09-07T00:52:17.780Z,90.73
2017-09-07T00:53:30.003Z,90.83
2017-09-07T00:54:42.532Z,91.36
2017-09-07T00:55:55.075Z,91.41
2017-09-07T00:57:07.296Z,91.31
2017-09-07T00:58:19.843Z,90.93
2017-09-07T00:59:32.090Z,91.02
2017-09-07T01:00:44.324Z,90.88
2017-09-07T01:01:56.212Z,91.27
2017-09-07T01:03:08.440Z,90.98
2017-09-07T01:04:20.698Z,91.83
2017-09-07T01:05:32.907Z,91.64
2017-09-07T01:06:45.428Z,91.17
2017-09-07T01:07:57.960Z,90.69
2017-09-07T01:09:10.176Z,90.69
2017-09-07T01:10:21.776Z,90.79
2017-09-07T01:11:33.718Z,91.93
2017-09-07T01:12:46.258Z,91.55
2017-09-07T01:13:58.829Z,90.88
2017-09-07T01:15:10.725Z,90.79
2017-09-07T01:16:22.653Z,91.64
2017-09-07T01:17:34.875Z,90.69
2017-09-07T01:18:47.417Z,91.36
2017-09-07T01:19:59.963Z,90.98
2017-09-07T01:21:12.183Z,91.55
2017-09-07T01:22:24.728Z,90.69
2017-09-07T01:23:37.277Z,90.69
2017-09-07T01:24:49.811Z,90.5
2017-09-07T01:26:02.345Z,89.74
2017-09-07T01:27:14.910Z,90.88
2017-09-07T01:28:27.102Z,90.03
2017-09-07T01:29:39.620Z,90.03
2017-09-07T01:30:52.132Z,90.03
2017-09-07T01:32:04.339Z,90.12
2017-09-07T01:33:16.885Z,90.12
2017-09-07T01:34:29.130Z,89.54
2017-09-07T01:35:41.684Z,89.83
2017-09-07T01:36:53.930Z,89.36
2017-09-07T01:38:06.175Z,88.98
2017-09-07T01:39:18.721Z,88.69
2017-09-07T01:40:31.241Z,88.64
2017-09-07T01:41:43.462Z,88.78
2017-09-07T01:42:55.683Z,89.26
2017-09-07T01:44:08.222Z,88.78
2017-09-07T01:45:20.738Z,88.64
2017-09-07T01:46:32.961Z,88.84
2017-09-07T01:47:44.916Z,88.45
2017-09-07T01:48:56.525Z,88.55
2017-09-07T01:50:08.745Z,88.93
2017-09-07T01:51:20.978Z,88.07
2017-09-07T01:52:33.198Z,88.07
2017-09-07T01:53:45.416Z,88.26
2017-09-07T01:54:57.929Z,88.26
2017-09-07T01:56:10.134Z,87.69
2017-09-07T01:57:22.355Z,87.79
2017-09-07T01:58:34.890Z,87.4
2017-09-07T01:59:46.797Z,86.93
2017-09-07T02:00:59.335Z,87.79
2017-09-07T02:02:12.138Z,87.12
2017-09-07T02:03:24.375Z,86.74
2017-09-07T02:04:36.622Z,86.55
2017-09-07T02:05:48.222Z,86.65
2017-09-07T02:07:00.460Z,86.16
2017-09-07T02:08:12.669Z,86.36
2017-09-07T02:09:24.901Z,85.88
2017-09-07T02:10:37.452Z,86.65
2017-09-07T02:11:49.378Z,86.26
2017-09-07T02:13:01.913Z,85.88
2017-09-07T02:14:14.145Z,85.5
2017-09-07T02:15:26.361Z,85.12
2017-09-07T02:16:38.901Z,85.69
2017-09-07T02:17:51.457Z,85.6
2017-09-07T02:19:03.696Z,85.69
2017-09-07T02:20:16.241Z,85.5
2017-09-07T02:21:28.769Z,85.69
2017-09-07T02:22:41.328Z,85.41
2017-09-07T02:23:53.828Z,85.02
2017-09-07T02:25:05.729Z,85.69
2017-09-07T02:26:17.953Z,84.74
2017-09-07T02:27:30.214Z,85.6
2017-09-07T02:28:42.139Z,85.5
2017-09-07T02:29:54.388Z,85.12
2017-09-07T02:31:06.923Z,85.12
2017-09-07T02:32:19.155Z,85.12
2017-09-07T02:33:31.442Z,85.41
2017-09-07T02:34:43.988Z,85.21
2017-09-07T02:35:55.898Z,85.02
2017-09-07T02:37:07.540Z,85.02
2017-09-07T02:38:20.050Z,84.83
2017-09-07T02:39:32.295Z,84.83
2017-09-07T02:40:44.849Z,84.74
2017-09-07T02:41:56.795Z,84.92
2017-09-07T02:43:08.736Z,85.21
2017-09-07T02:44:21.250Z,84.64
2017-09-07T02:45:33.795Z,84.64
2017-09-07T02:46:45.384Z,84.83
2017-09-07T02:47:57.923Z,84.74
2017-09-07T02:49:10.473Z,84.92
2017-09-07T02:50:22.693Z,84.83
2017-09-07T02:51:34.960Z,84.83
2017-09-07T02:52:47.506Z,84.64
2017-09-07T02:54:00.073Z,84.36
2017-09-07T02:55:12.296Z,84.36
2017-09-07T02:56:23.918Z,84.45
2017-09-07T02:57:36.456Z,84.64
2017-09-07T02:58:48.684Z,84.26
2017-09-07T03:00:00.927Z,84.26
2017-09-07T03:01:13.442Z,84.55
2017-09-07T03:02:25.346Z,84.36
2017-09-07T03:03:37.907Z,84.36
2017-09-07T03:04:50.435Z,84.26
2017-09-07T03:06:02.358Z,84.45
2017-09-07T03:07:15.154Z,84.45
2017-09-07T03:08:27.721Z,84.36
2017-09-07T03:09:40.236Z,84.55
2017-09-07T03:10:52.458Z,84.26
2017-09-07T03:12:04.387Z,83.78
2017-09-07T03:13:16.929Z,83.78
2017-09-07T03:14:29.477Z,83.78
2017-09-07T03:15:42.011Z,83.97
2017-09-07T03:16:54.220Z,83.97
2017-09-07T03:18:06.456Z,83.5
2017-09-07T03:19:18.999Z,83.21
2017-09-07T03:20:31.519Z,83.02
2017-09-07T03:21:43.444Z,83.21
2017-09-07T03:22:55.667Z,83.21
2017-09-07T03:24:08.182Z,82.64
2017-09-07T03:25:20.388Z,83.02
2017-09-07T03:26:32.927Z,83.5
2017-09-07T03:27:45.171Z,83.21
2017-09-07T03:28:57.700Z,83.02
2017-09-07T03:30:10.243Z,82.92
2017-09-07T03:31:22.513Z,83.02
2017-09-07T03:32:35.051Z,82.92
2017-09-07T03:33:47.596Z,82.83
2017-09-07T03:35:00.124Z,83.31
2017-09-07T03:36:12.063Z,82.83
2017-09-07T03:37:24.291Z,82.6
2017-09-07T03:38:36.507Z,82.45
2017-09-07T03:39:48.678Z,82.07
2017-09-07T03:41:01.207Z,82.12
2017-09-07T03:42:13.773Z,82.03
2017-09-07T03:43:26.290Z,82.03
2017-09-07T03:44:38.839Z,81.93
2017-09-07T03:45:51.411Z,82.12
2017-09-07T03:47:03.301Z,82.17
2017-09-07T03:48:15.852Z,81.74
2017-09-07T03:49:27.773Z,82.12
2017-09-07T03:50:40.314Z,81.84
2017-09-07T03:51:52.539Z,81.88
2017-09-07T03:53:04.440Z,81.74
2017-09-07T03:54:16.983Z,81.46
2017-09-07T03:55:29.519Z,81.74
2017-09-07T03:56:42.042Z,81.74
2017-09-07T03:57:54.312Z,81.93
2017-09-07T03:59:06.541Z,81.84
2017-09-07T04:00:18.779Z,81.74
2017-09-07T04:01:31.260Z,82.12
2017-09-07T04:02:43.792Z,82.21
2017-09-07T04:03:55.712Z,81.74
2017-09-07T04:05:08.258Z,81.55
2017-09-07T04:06:20.462Z,81.74
2017-09-07T04:07:32.382Z,81.88
2017-09-07T04:08:44.925Z,81.65
2017-09-07T04:09:56.866Z,81.74
2017-09-07T04:11:09.086Z,81.93
2017-09-07T04:12:20.991Z,81.74
2017-09-07T04:13:33.553Z,81.74
2017-09-07T04:14:46.109Z,81.74
2017-09-07T04:15:58.330Z,82.12
2017-09-07T04:17:10.565Z,81.65
2017-09-07T04:18:22.821Z,81.65
2017-09-07T04:19:35.381Z,81.55
2017-09-07T04:20:47.629Z,81.07
2017-09-07T04:21:59.849Z,81.36
2017-09-07T04:23:11.754Z,81.26
2017-09-07T04:24:23.999Z,81.55
2017-09-07T04:25:36.548Z,81.36
2017-09-07T04:26:49.109Z,81.65
2017-09-07T04:28:01.654Z,81.46
2017-09-07T04:29:14.206Z,81.93
2017-09-07T04:30:26.749Z,81.3
2017-09-07T04:31:39.291Z,81.4
2017-09-07T04:32:51.561Z,81.59
2017-09-07T04:34:04.112Z,81.49
2017-09-07T04:35:16.659Z,81.97
2017-09-07T04:36:29.232Z,81.78
2017-09-07T04:37:41.498Z,81.49
2017-09-07T04:38:54.039Z,81.68
2017-09-07T04:40:06.567Z,82.64
2017-09-07T04:41:19.109Z,82.54
2017-09-07T04:42:31.049Z,82.73
2017-09-07T04:43:43.598Z,82.64
2017-09-07T04:44:55.768Z,82.64
2017-09-07T04:46:07.995Z,82.64
2017-09-07T04:47:20.505Z,83.21
2017-09-07T04:48:32.730Z,83.31
2017-09-07T04:49:44.922Z,83.12
2017-09-07T04:50:56.851Z,83.59
2017-09-07T04:52:09.378Z,83.4
2017-09-07T04:53:21.945Z,83.21
2017-09-07T04:54:34.165Z,83.31
2017-09-07T04:55:46.411Z,83.12
2017-09-07T04:56:58.949Z,83.5
2017-09-07T04:58:11.195Z,83.69
2017-09-07T04:59:23.715Z,83.59
2017-09-07T05:00:36.243Z,83.4
2017-09-07T05:01:48.786Z,83.31
2017-09-07T05:03:01.010Z,83.31
2017-09-07T05:04:13.545Z,82.83
2017-09-07T05:05:26.052Z,83.69
2017-09-07T05:06:38.620Z,83.59
2017-09-07T05:07:51.161Z,84.36
2017-09-07T05:09:03.407Z,84.11
2017-09-07T05:10:15.947Z,84.88
2017-09-07T05:11:28.179Z,84.88
2017-09-07T05:12:40.717Z,84.2
2017-09-07T05:13:52.634Z,84.59
2017-09-07T05:15:04.833Z,84.88
2017-09-07T05:16:16.780Z,85.06
2017-09-07T05:17:29.359Z,86.4
2017-09-07T05:18:41.604Z,86.02
2017-09-07T05:19:53.220Z,85.83
2017-09-07T05:21:05.763Z,86.11
2017-09-07T05:22:18.299Z,86.98
2017-09-07T05:23:30.509Z,87.93
2017-09-07T05:24:42.446Z,87.93
2017-09-07T05:25:54.653Z,88.02
2017-09-07T05:27:06.576Z,88.21
2017-09-07T05:28:19.116Z,88.12
2017-09-07T05:29:31.364Z,88.21
2017-09-07T05:30:43.886Z,88.21
2017-09-07T05:31:56.426Z,89.45
2017-09-07T05:33:08.644Z,90.03
2017-09-07T05:34:21.164Z,90.45
2017-09-07T05:35:33.390Z,90.07
2017-09-07T05:36:45.952Z,90.45
2017-09-07T05:37:57.875Z,90.55
2017-09-07T05:39:10.393Z,90.55
2017-09-07T05:40:22.597Z,90.26
2017-09-07T05:41:34.846Z,90.45
2017-09-07T05:42:46.765Z,90.07
2017-09-07T05:43:59.301Z,89.97
2017-09-07T05:45:11.507Z,91.6
2017-09-07T05:46:24.073Z,91.02
2017-09-07T05:47:36.299Z,91.12
2017-09-07T05:48:48.519Z,91.02
2017-09-07T05:50:01.090Z,91.69
2017-09-07T05:51:13.303Z,91.98
2017-09-07T05:52:25.548Z,92.07
2017-09-07T05:53:38.078Z,91.98
2017-09-07T05:54:50.647Z,91.6
2017-09-07T05:56:03.166Z,91.74
2017-09-07T05:57:15.406Z,91.83
2017-09-07T05:58:27.981Z,92.21
2017-09-07T05:59:39.894Z,93.26
2017-09-07T06:00:52.419Z,93.65
2017-09-07T06:02:04.936Z,94.03
2017-09-07T06:03:17.464Z,93.65
2017-09-07T06:04:30.010Z,93.46
2017-09-07T06:05:42.546Z,93.17
2017-09-07T06:06:54.776Z,93.17
2017-09-07T06:08:07.322Z,93.55
2017-09-07T06:09:19.859Z,93.74
2017-09-07T06:10:32.415Z,93.65
2017-09-07T06:11:44.626Z,94.22
2017-09-07T06:12:56.224Z,93.93
2017-09-07T06:14:08.475Z,93.84
2017-09-07T06:15:20.723Z,93.55
2017-09-07T06:16:33.245Z,93.07
2017-09-07T06:17:45.790Z,94.98
2017-09-07T06:18:57.725Z,94.51
2017-09-07T06:20:09.933Z,93.84
2017-09-07T06:21:21.874Z,93.17
2017-09-07T06:22:33.737Z,93.74
2017-09-07T06:23:45.985Z,93.36
2017-09-07T06:24:58.509Z,94.31
2017-09-07T06:26:10.435Z,94.98
2017-09-07T06:27:22.677Z,95.17
2017-09-07T06:28:34.902Z,95.03
2017-09-07T06:29:47.438Z,95.89
2017-09-07T06:30:59.663Z,95.89
2017-09-07T06:32:11.885Z,95.89
2017-09-07T06:33:24.109Z,97.61
2017-09-07T06:34:36.347Z,96.66
2017-09-07T06:35:48.574Z,96.56
2017-09-07T06:36:59.869Z,96.66
2017-09-07T06:38:11.808Z,97.32
2017-09-07T06:39:24.033Z,97.32
2017-09-07T06:40:36.255Z,97.32
2017-09-07T06:41:48.478Z,96.75
2017-09-07T06:43:01.014Z,96.84
2017-09-07T06:44:13.487Z,97.13
2017-09-07T06:45:26.011Z,97.89
2017-09-07T06:46:38.559Z,97.32
2017-09-07T06:47:50.785Z,97.71
2017-09-07T06:49:03.324Z,97.99
2017-09-07T06:50:15.839Z,97.32
2017-09-07T06:51:27.735Z,97.56
2017-09-07T06:52:40.257Z,97.75
2017-09-07T06:53:52.810Z,97.66
2017-09-07T06:55:04.719Z,97.66
2017-09-07T06:56:17.275Z,97.75
2017-09-07T06:57:29.793Z,98.8
2017-09-07T06:58:42.317Z,98.99
2017-09-07T06:59:54.568Z,99.28
2017-09-07T07:01:07.100Z,99.48
2017-09-07T07:02:19.318Z,99.43
2017-09-07T07:03:31.565Z,99.66
2017-09-07T07:04:44.095Z,99.66
2017-09-07T07:05:56.642Z,99.99
2017-09-07T07:07:08.879Z,99.99
2017-09-07T07:08:21.424Z,99.99
2017-09-07T07:09:33.677Z,99.99
2017-09-07T07:10:46.224Z,99.99
2017-09-07T07:11:57.843Z,99.99
2017-09-07T07:13:10.054Z,99.99
2017-09-07T07:14:22.582Z,99.99
2017-09-07T07:15:35.124Z,99.99
2017-09-07T07:16:47.027Z,99.99
2017-09-07T07:17:59.273Z,99.99
2017-09-07T07:19:11.519Z,99.99
2017-09-07T07:20:24.064Z,99.99
2017-09-07T07:21:36.298Z,99.99
2017-09-07T07:22:48.827Z,99.99
2017-09-07T07:24:00.766Z,99.99
2017-09-07T07:25:13.313Z,99.99
2017-09-07T07:26:25.556Z,99.99
2017-09-07T07:27:37.485Z,99.99
2017-09-07T07:28:50.026Z,99.99
2017-09-07T07:30:02.584Z,99.99
2017-09-07T07:31:14.800Z,99.99
2017-09-07T07:32:27.043Z,99.99
2017-09-07T07:33:39.258Z,99.99
2017-09-07T07:34:51.175Z,99.99
2017-09-07T07:36:03.722Z,99.99
2017-09-07T07:37:16.220Z,99.99
2017-09-07T07:38:28.767Z,99.99
2017-09-07T07:39:41.342Z,99.99
2017-09-07T07:40:52.954Z,99.99
2017-09-07T07:42:05.208Z,99.99
2017-09-07T07:43:17.477Z,99.99
2017-09-07T07:44:29.716Z,99.99
2017-09-07T07:45:41.640Z,99.99
2017-09-07T07:46:54.190Z,99.99
2017-09-07T07:48:06.428Z,99.99
2017-09-07T07:49:18.052Z,99.99
2017-09-07T07:50:30.307Z,99.99
2017-09-07T07:51:42.540Z,99.99
2017-09-07T07:52:55.089Z,99.99
2017-09-07T07:54:07.643Z,99.99
2017-09-07T07:55:20.181Z,99.99
2017-09-07T07:56:32.434Z,99.99
2017-09-07T07:57:44.355Z,99.99
2017-09-07T07:58:56.575Z,99.99
2017-09-07T08:00:08.825Z,99.99
2017-09-07T08:01:21.363Z,99.99
2017-09-07T08:02:33.305Z,99.99
2017-09-07T08:03:45.528Z,99.99
2017-09-07T08:04:58.092Z,99.99
2017-09-07T08:06:10.346Z,99.99
2017-09-07T08:07:22.861Z,99.99
2017-09-07T08:08:34.778Z,99.99
2017-09-07T08:09:47.010Z,99.99
2017-09-07T08:10:59.249Z,99.99
2017-09-07T08:12:11.802Z,99.99
2017-09-07T08:13:24.023Z,99.99
2017-09-07T08:14:36.258Z,99.99
2017-09-07T08:15:48.489Z,99.99
2017-09-07T08:17:01.029Z,99.99
2017-09-07T08:18:13.569Z,99.99
2017-09-07T08:19:26.103Z,99.99
2017-09-07T08:20:38.689Z,99.99
2017-09-07T08:21:50.606Z,99.99
2017-09-07T08:23:02.837Z,99.99
2017-09-07T08:24:15.083Z,99.99
2017-09-07T08:25:26.996Z,99.99
2017-09-07T08:26:38.921Z,99.99
2017-09-07T08:27:51.445Z,99.99
2017-09-07T08:29:03.368Z,99.99
2017-09-07T08:30:15.601Z,99.99
2017-09-07T08:31:27.847Z,99.99
2017-09-07T08:32:40.078Z,99.99
2017-09-07T08:33:52.621Z,99.99
2017-09-07T08:35:04.867Z,99.99
2017-09-07T08:36:17.433Z,99.99
2017-09-07T08:37:29.979Z,99.99
2017-09-07T08:38:42.445Z,99.99
2017-09-07T08:39:54.702Z,99.99
2017-09-07T08:41:06.936Z,99.24
2017-09-07T08:42:19.132Z,99.99
2017-09-07T08:43:31.357Z,99.99
2017-09-07T08:44:43.873Z,99.99
2017-09-07T08:45:55.797Z,99.68
2017-09-07T08:47:08.048Z,99.2
2017-09-07T08:48:19.642Z,99.49
2017-09-07T08:49:32.160Z,99.39
2017-09-07T08:50:44.688Z,99.29
2017-09-07T08:51:57.209Z,99.68
2017-09-07T08:53:09.435Z,98.05
2017-09-07T08:54:21.948Z,98.33
2017-09-07T08:55:34.187Z,98.14
2017-09-07T08:56:45.836Z,98.43
2017-09-07T08:57:58.037Z,97.66
2017-09-07T08:59:10.275Z,98.62
2017-09-07T09:00:21.899Z,98.82
2017-09-07T09:01:34.446Z,99.1
2017-09-07T09:02:46.662Z,99.58
2017-09-07T09:03:59.206Z,99.01
2017-09-07T09:05:11.712Z,98.82
2017-09-07T09:06:24.257Z,98.53
2017-09-07T09:07:36.820Z,99.01
2017-09-07T09:08:49.073Z,98.62
2017-09-07T09:10:01.318Z,98.72
2017-09-07T09:11:13.236Z,98.82
2017-09-07T09:12:25.773Z,98.24
2017-09-07T09:13:38.306Z,98.53
2017-09-07T09:14:50.864Z,99.77
2017-09-07T09:16:02.464Z,98.82
2017-09-07T09:17:15.007Z,98.43
2017-09-07T09:18:26.911Z,99.58
2017-09-07T09:19:39.150Z,98.62
2017-09-07T09:20:51.379Z,97.47
2017-09-07T09:22:03.617Z,97.76
2017-09-07T09:23:15.524Z,98.14
2017-09-07T09:24:27.760Z,98.14
2017-09-07T09:25:40.309Z,98.33
2017-09-07T09:26:52.579Z,98.05
2017-09-07T09:28:05.150Z,97.28
2017-09-07T09:29:17.695Z,97.28
2017-09-07T09:30:30.241Z,98.05
2017-09-07T09:31:42.783Z,98.24
2017-09-07T09:32:55.032Z,98.62
2017-09-07T09:34:06.954Z,98.43
2017-09-07T09:35:18.875Z,98.14
2017-09-07T09:36:31.090Z,98.24
2017-09-07T09:37:42.719Z,97.91
2017-09-07T09:38:55.242Z,97.61
2017-09-07T09:40:07.184Z,98.1
2017-09-07T09:41:19.728Z,97.24
2017-09-07T09:42:32.293Z,97.24
2017-09-07T09:43:44.511Z,97.42
2017-09-07T09:44:57.045Z,96.75
2017-09-07T09:46:09.302Z,95.94
2017-09-07T09:47:21.837Z,96.03
2017-09-07T09:48:34.376Z,96.32
2017-09-07T09:49:46.597Z,95.84
2017-09-07T09:50:58.521Z,95.94
2017-09-07T09:52:10.756Z,96.03
2017-09-07T09:53:23.275Z,96.42
2017-09-07T09:54:35.509Z,96.13
2017-09-07T09:55:48.021Z,96.42
2017-09-07T09:57:00.246Z,96.03
2017-09-07T09:58:11.843Z,95.65
2017-09-07T09:59:24.338Z,95.79
2017-09-07T10:00:36.882Z,95.6
2017-09-07T10:01:49.106Z,96.08
2017-09-07T10:03:01.023Z,97.14
2017-09-07T10:04:13.573Z,97.81
2017-09-07T10:05:25.819Z,97.42
2017-09-07T10:06:38.065Z,96.85
2017-09-07T10:07:50.582Z,96.37
2017-09-07T10:09:02.830Z,96.56
2017-09-07T10:10:15.365Z,95.98
2017-09-07T10:11:27.921Z,95.79
2017-09-07T10:12:40.489Z,95.98
2017-09-07T10:13:53.034Z,95.7
2017-09-07T10:15:05.298Z,95.7
2017-09-07T10:16:17.825Z,95.5
2017-09-07T10:17:30.067Z,96.75
2017-09-07T10:18:42.321Z,99.73
2017-09-07T10:19:54.880Z,99.82
2017-09-07T10:21:07.350Z,99.99
2017-09-07T10:22:19.897Z,99.99
2017-09-07T10:23:32.445Z,99.99
2017-09-07T10:24:43.762Z,99.99
2017-09-07T10:25:55.970Z,99.99
2017-09-07T10:27:08.214Z,99.99
2017-09-07T10:28:20.761Z,99.99
2017-09-07T10:29:33.296Z,99.99
2017-09-07T10:30:45.827Z,99.99
2017-09-07T10:31:57.749Z,99.99
2017-09-07T10:33:10.016Z,99.99
2017-09-07T10:34:22.579Z,99.99
2017-09-07T10:35:34.187Z,99.99
2017-09-07T10:36:46.452Z,99.99
2017-09-07T10:37:58.968Z,99.99
2017-09-07T10:39:11.517Z,99.99
2017-09-07T10:40:23.456Z,99.99
2017-09-07T10:41:35.339Z,99.99
2017-09-07T10:42:47.559Z,99.99
2017-09-07T10:43:59.479Z,99.99
2017-09-07T10:45:11.725Z,99.99
2017-09-07T10:46:23.966Z,99.99
2017-09-07T10:47:36.191Z,99.99
2017-09-07T10:48:48.389Z,99.99
2017-09-07T10:50:00.058Z,99.99
2017-09-07T10:51:12.279Z,99.99
2017-09-07T10:52:24.824Z,99.99
2017-09-07T10:53:37.368Z,99.73
2017-09-07T10:54:49.932Z,99.87
2017-09-07T10:56:01.878Z,99.99
2017-09-07T10:57:13.845Z,99.99
2017-09-07T10:58:26.080Z,99.99
2017-09-07T10:59:38.619Z,99.99
2017-09-07T11:00:50.866Z,99.99
2017-09-07T11:02:03.118Z,99.99
2017-09-07T11:03:15.660Z,99.99
2017-09-07T11:04:27.897Z,99.99
2017-09-07T11:05:40.439Z,99.99
2017-09-07T11:06:52.360Z,99.99
2017-09-07T11:08:04.616Z,99.68
2017-09-07T11:09:17.161Z,99.99
2017-09-07T11:10:29.679Z,99.99
2017-09-07T11:11:41.909Z,99.99
2017-09-07T11:12:54.467Z,99.96
2017-09-07T11:14:07.013Z,99.99
2017-09-07T11:15:19.566Z,99.99
2017-09-07T11:16:31.513Z,99.96
2017-09-07T11:17:43.134Z,99.49
2017-09-07T11:18:55.342Z,99.96
2017-09-07T11:20:07.571Z,99.34
2017-09-07T11:21:20.118Z,99.63
2017-09-07T11:22:32.658Z,98.86
2017-09-07T11:23:45.227Z,99.44
2017-09-07T11:24:57.427Z,98.86
2017-09-07T11:26:10.001Z,99.05
2017-09-07T11:27:21.911Z,98.48
2017-09-07T11:28:34.436Z,98.58
2017-09-07T11:29:46.978Z,98.48
2017-09-07T11:30:59.510Z,97.56
2017-09-07T11:32:12.052Z,98.53
2017-09-07T11:33:24.576Z,99.29
2017-09-07T11:34:36.817Z,99.96
2017-09-07T11:35:48.744Z,99.99
2017-09-07T11:37:01.005Z,99.99
2017-09-07T11:38:13.221Z,99.96
2017-09-07T11:39:25.774Z,99.91
2017-09-07T11:40:38.025Z,99.99
2017-09-07T11:41:49.644Z,99.99
2017-09-07T11:43:02.217Z,99.99
2017-09-07T11:44:14.778Z,99.99
2017-09-07T11:45:27.314Z,99.99
2017-09-07T11:46:39.867Z,99.99
2017-09-07T11:47:52.098Z,99.99
2017-09-07T11:49:04.634Z,99.99
2017-09-07T11:50:16.562Z,99.99
2017-09-07T11:51:28.807Z,99.99
2017-09-07T11:52:40.406Z,99.99
2017-09-07T11:53:52.651Z,99.99
2017-09-07T11:55:05.193Z,99.99
2017-09-07T11:56:17.740Z,99.99
2017-09-07T11:57:29.380Z,99.99
2017-09-07T11:58:41.633Z,99.99
2017-09-07T11:59:53.254Z,99.99
2017-09-07T12:01:05.194Z,99.99
2017-09-07T12:02:17.738Z,99.99
2017-09-07T12:03:29.939Z,99.99
2017-09-07T12:04:42.427Z,99.99
2017-09-07T12:05:54.972Z,99.99
2017-09-07T12:07:06.880Z,99.99
2017-09-07T12:08:18.825Z,99.99
2017-09-07T12:09:31.362Z,99.99
2017-09-07T12:10:43.936Z,99.99
2017-09-07T12:11:55.885Z,99.99
2017-09-07T12:13:07.846Z,99.99
2017-09-07T12:14:20.092Z,99.99
2017-09-07T12:15:32.337Z,99.99
2017-09-07T12:16:44.897Z,99.99
2017-09-07T12:17:57.140Z,99.68
2017-09-07T12:19:09.703Z,99.29
2017-09-07T12:20:21.946Z,99.29
2017-09-07T12:21:34.177Z,99.29
2017-09-07T12:22:46.411Z,99.29
2017-09-07T12:23:58.916Z,98.43
2017-09-07T12:25:11.155Z,98.91
2017-09-07T12:26:23.702Z,99.49
2017-09-07T12:27:35.310Z,99.99
2017-09-07T12:28:47.851Z,99.99
2017-09-07T12:29:59.784Z,99.99
2017-09-07T12:31:12.320Z,99.99
2017-09-07T12:32:24.858Z,99.99
2017-09-07T12:33:37.075Z,99.99
2017-09-07T12:34:49.004Z,99.99
2017-09-07T12:36:01.542Z,99.99
2017-09-07T12:37:13.467Z,99.99
2017-09-07T12:38:25.986Z,99.99
2017-09-07T12:39:38.200Z,99.99
2017-09-07T12:40:50.746Z,99.99
2017-09-07T12:42:02.666Z,99.99
2017-09-07T12:43:15.191Z,99.99
2017-09-07T12:44:27.419Z,99.99
2017-09-07T12:45:39.656Z,99.99
2017-09-07T12:46:52.210Z,99.99
2017-09-07T12:48:04.823Z,99.99
2017-09-07T12:49:16.754Z,99.99
2017-09-07T12:50:28.998Z,99.99
2017-09-07T12:51:41.245Z,99.99
2017-09-07T12:52:53.485Z,99.99
2017-09-07T12:54:05.401Z,99.99
2017-09-07T12:55:17.982Z,99.99
2017-09-07T12:56:30.538Z,99.99
2017-09-07T12:57:42.468Z,99.99
2017-09-07T12:58:55.013Z,99.99
2017-09-07T13:00:07.211Z,99.99
2017-09-07T13:01:19.733Z,99.99
2017-09-07T13:02:32.282Z,99.99
2017-09-07T13:03:44.489Z,99.99
2017-09-07T13:04:57.017Z,99.99
2017-09-07T13:06:09.242Z,99.99
2017-09-07T13:07:21.476Z,99.99
2017-09-07T13:08:34.032Z,99.99
2017-09-07T13:09:46.543Z,99.99
2017-09-07T13:10:58.473Z,99.99
2017-09-07T13:12:11.008Z,99.99
2017-09-07T13:13:23.232Z,99.99
2017-09-07T13:14:35.482Z,99.99
2017-09-07T13:15:47.707Z,99.99
2017-09-07T13:16:59.623Z,99.99
2017-09-07T13:18:11.864Z,99.99
2017-09-07T13:19:24.107Z,99.99
2017-09-07T13:20:36.638Z,99.99
2017-09-07T13:21:48.860Z,99.99
2017-09-07T13:23:00.503Z,99.99
2017-09-07T13:24:13.052Z,99.99
2017-09-07T13:25:24.996Z,99.99
2017-09-07T13:26:37.533Z,99.99
2017-09-07T13:27:49.134Z,99.99
2017-09-07T13:29:01.671Z,99.87
2017-09-07T13:30:13.279Z,99.29
2017-09-07T13:31:25.841Z,99.24
2017-09-07T13:32:37.466Z,98.67
2017-09-07T13:33:49.715Z,97.71
2017-09-07T13:35:01.950Z,96.66
2017-09-07T13:36:13.554Z,96.66
2017-09-07T13:37:26.104Z,94.93
2017-09-07T13:38:38.023Z,94.93
2017-09-07T13:39:50.269Z,94.69
2017-09-07T13:41:02.814Z,93.35
2017-09-07T13:42:15.062Z,92.35
2017-09-07T13:43:27.629Z,91.96
2017-09-07T13:44:40.215Z,90.81
2017-09-07T13:45:51.794Z,90.23
2017-09-07T13:47:04.032Z,89.66
2017-09-07T13:48:16.264Z,89.37
2017-09-07T13:49:28.785Z,89.66
2017-09-07T13:50:41.380Z,89.76
2017-09-07T13:51:53.947Z,89.76
2017-09-07T13:53:05.896Z,90.72
2017-09-07T13:54:18.439Z,91.39
2017-09-07T13:55:30.687Z,91.77
2017-09-07T13:56:43.224Z,91.67
2017-09-07T13:57:55.422Z,92.73
2017-09-07T13:59:07.995Z,91.39
2017-09-07T14:00:20.260Z,91.58
2017-09-07T14:01:32.508Z,94.21
2017-09-07T14:02:44.428Z,93.59
2017-09-07T14:03:56.657Z,92.87
2017-09-07T14:05:08.270Z,93.16
2017-09-07T14:06:20.823Z,93.73
2017-09-07T14:07:33.081Z,93.16
2017-09-07T14:08:44.986Z,95.26
2017-09-07T14:09:56.582Z,94.74
2017-09-07T14:11:08.494Z,95.12
2017-09-07T14:12:21.005Z,94.64
2017-09-07T14:13:33.617Z,96.37
2017-09-07T14:14:45.891Z,96.47
2017-09-07T14:15:57.869Z,96.27
2017-09-07T14:17:10.141Z,96.47
2017-09-07T14:18:22.700Z,95.79
2017-09-07T14:19:35.203Z,96.66
2017-09-07T14:20:47.810Z,96.66
2017-09-07T14:21:59.741Z,96.66
2017-09-07T14:23:11.414Z,96.94
2017-09-07T14:24:23.953Z,97.71
2017-09-07T14:25:35.932Z,98.1
2017-09-07T14:26:48.194Z,97.9
2017-09-07T14:28:00.767Z,97.71
2017-09-07T14:29:12.754Z,98
2017-09-07T14:30:25.319Z,97.9
2017-09-07T14:31:37.820Z,98.96
2017-09-07T14:32:50.366Z,98.19
2017-09-07T14:34:02.945Z,97.81
2017-09-07T14:35:15.542Z,97.23
2017-09-07T14:36:27.809Z,97.56
2017-09-07T14:37:40.398Z,98.14
2017-09-07T14:38:52.975Z,98.24
2017-09-07T14:40:05.546Z,97.47
2017-09-07T14:41:18.355Z,96.99
2017-09-07T14:42:30.644Z,96.99
2017-09-07T14:43:42.863Z,96.51
2017-09-07T14:44:55.374Z,96.03
2017-09-07T14:46:07.317Z,95.65
2017-09-07T14:47:19.246Z,95.07
2017-09-07T14:48:31.491Z,95.36
2017-09-07T14:49:44.045Z,94.55
2017-09-07T14:50:56.276Z,93.93
2017-09-07T14:52:08.824Z,94.69
2017-09-07T14:53:21.425Z,94.5
2017-09-07T14:54:33.652Z,94.5
2017-09-07T14:55:46.221Z,94.4
2017-09-07T14:56:58.735Z,95.07
2017-09-07T14:58:11.300Z,95.75
2017-09-07T14:59:23.907Z,95.84
2017-09-07T15:00:35.531Z,95.26
2017-09-07T15:01:48.121Z,95.65
2017-09-07T15:03:00.095Z,95.65
2017-09-07T15:04:12.365Z,95.94
2017-09-07T15:05:24.586Z,95.36
2017-09-07T15:06:37.200Z,96.51
2017-09-07T15:07:49.773Z,96.13
2017-09-07T15:09:02.343Z,95.84
2017-09-07T15:10:14.615Z,96.22
2017-09-07T15:11:26.568Z,96.22
2017-09-07T15:12:38.854Z,95.46
2017-09-07T15:13:51.392Z,96.22
2017-09-07T15:15:03.339Z,95.26
2017-09-07T15:16:15.565Z,96.13
2017-09-07T15:17:27.844Z,95.46
2017-09-07T15:18:40.140Z,95.46
2017-09-07T15:19:52.422Z,95.26
2017-09-07T15:21:04.692Z,96.42
2017-09-07T15:22:17.253Z,95.75
2017-09-07T15:23:29.508Z,95.65
2017-09-07T15:24:41.736Z,95.46
2017-09-07T15:25:53.690Z,95.46
2017-09-07T15:27:06.254Z,95.84
2017-09-07T15:28:18.851Z,95.17
2017-09-07T15:29:31.095Z,95.75
2017-09-07T15:30:43.658Z,95.84
2017-09-07T15:31:55.883Z,95.84